sensor_id;sensor_type;location;lat;lon;timestamp;pressure;altitude;pressure_sealevel;temperature;humidity
69027;BME280;56080;47.594;19.116;2022-12-18T00:03:50;101634;;;-1.65;84.63
69027;BME280;56080;47.594;19.116;2022-12-18T00:08:49;101637;;;-1.60;84.65
69027;BME280;56080;47.594;19.116;2022-12-18T00:13:49;101656;;;-1.75;85.03
69027;BME280;56080;47.594;19.116;2022-12-18T00:18:50;101675;;;-1.74;84.96
69027;BME280;56080;47.594;19.116;2022-12-18T00:23:50;101684;;;-1.93;85.54
69027;BME280;56080;47.594;19.116;2022-12-18T00:28:50;101687;;;-2.06;86.43
69027;BME280;56080;47.594;19.116;2022-12-18T00:33:55;101696;;;-1.88;86.11
69027;BME280;56080;47.594;19.116;2022-12-18T00:38:49;101696;;;-1.86;85.64
69027;BME280;56080;47.594;19.116;2022-12-18T00:43:49;101700;;;-2.06;86.65
69027;BME280;56080;47.594;19.116;2022-12-18T00:48:49;101705;;;-2.10;86.79
69027;BME280;56080;47.594;19.116;2022-12-18T00:53:49;101710;;;-1.86;85.40
69027;BME280;56080;47.594;19.116;2022-12-18T00:58:49;101720;;;-2.14;85.25
69027;BME280;56080;47.594;19.116;2022-12-18T01:03:49;101729;;;-2.29;85.42
69027;BME280;56080;47.594;19.116;2022-12-18T01:08:49;101733;;;-2.42;86.13
69027;BME280;56080;47.594;19.116;2022-12-18T01:13:51;101738;;;-2.41;87.30
69027;BME280;56080;47.594;19.116;2022-12-18T01:18:51;101737;;;-2.25;86.87
69027;BME280;56080;47.594;19.116;2022-12-18T01:23:51;101741;;;-2.36;87.28
69027;BME280;56080;47.594;19.116;2022-12-18T01:28:49;101750;;;-2.28;87.25
69027;BME280;56080;47.594;19.116;2022-12-18T01:33:50;101750;;;-2.07;86.14
69027;BME280;56080;47.594;19.116;2022-12-18T01:38:49;101749;;;-2.12;86.47
69027;BME280;56080;47.594;19.116;2022-12-18T01:48:51;101756;;;-2.23;86.54
69027;BME280;56080;47.594;19.116;2022-12-18T01:53:49;101766;;;-2.17;86.83
69027;BME280;56080;47.594;19.116;2022-12-18T01:59:06;101772;;;-2.08;86.76
69027;BME280;56080;47.594;19.116;2022-12-18T02:03:49;101774;;;-2.16;87.28
69027;BME280;56080;47.594;19.116;2022-12-18T02:13:53;101789;;;-2.27;86.04
69027;BME280;56080;47.594;19.116;2022-12-18T02:18:50;101802;;;-2.45;86.31
69027;BME280;56080;47.594;19.116;2022-12-18T02:29:05;101812;;;-2.53;86.57
69027;BME280;56080;47.594;19.116;2022-12-18T02:33:50;101815;;;-2.71;87.07
69027;BME280;56080;47.594;19.116;2022-12-18T02:38:49;101821;;;-2.58;86.26
69027;BME280;56080;47.594;19.116;2022-12-18T02:43:52;101828;;;-2.65;86.56
69027;BME280;56080;47.594;19.116;2022-12-18T02:48:50;101836;;;-2.57;86.65
69027;BME280;56080;47.594;19.116;2022-12-18T02:53:52;101838;;;-2.55;86.86
69027;BME280;56080;47.594;19.116;2022-12-18T03:08:51;101852;;;-2.57;88.40
69027;BME280;56080;47.594;19.116;2022-12-18T03:13:50;101850;;;-2.45;87.83
69027;BME280;56080;47.594;19.116;2022-12-18T03:18:58;101852;;;-2.66;87.81
69027;BME280;56080;47.594;19.116;2022-12-18T03:23:49;101863;;;-2.52;87.72
69027;BME280;56080;47.594;19.116;2022-12-18T03:28:51;101871;;;-2.67;88.29
69027;BME280;56080;47.594;19.116;2022-12-18T03:33:52;101883;;;-2.80;88.23
69027;BME280;56080;47.594;19.116;2022-12-18T03:38:49;101894;;;-2.82;87.78
69027;BME280;56080;47.594;19.116;2022-12-18T03:43:51;101892;;;-2.78;87.63
69027;BME280;56080;47.594;19.116;2022-12-18T03:48:52;101902;;;-2.77;87.63
69027;BME280;56080;47.594;19.116;2022-12-18T03:58:49;101901;;;-3.04;87.99
69027;BME280;56080;47.594;19.116;2022-12-18T04:03:50;101906;;;-3.11;88.34
69027;BME280;56080;47.594;19.116;2022-12-18T04:08:50;101910;;;-2.87;88.40
69027;BME280;56080;47.594;19.116;2022-12-18T04:13:49;101906;;;-2.90;87.95
69027;BME280;56080;47.594;19.116;2022-12-18T04:18:50;101911;;;-3.20;89.02
69027;BME280;56080;47.594;19.116;2022-12-18T04:23:49;101916;;;-3.07;88.76
69027;BME280;56080;47.594;19.116;2022-12-18T04:28:49;101922;;;-2.92;88.22
69027;BME280;56080;47.594;19.116;2022-12-18T04:33:49;101924;;;-3.19;89.11
69027;BME280;56080;47.594;19.116;2022-12-18T04:38:50;101927;;;-3.10;88.47
69027;BME280;56080;47.594;19.116;2022-12-18T04:43:49;101938;;;-3.13;88.80
69027;BME280;56080;47.594;19.116;2022-12-18T04:48:49;101944;;;-3.28;88.19
69027;BME280;56080;47.594;19.116;2022-12-18T04:53:49;101952;;;-3.44;89.57
69027;BME280;56080;47.594;19.116;2022-12-18T04:58:49;101964;;;-3.30;89.27
69027;BME280;56080;47.594;19.116;2022-12-18T05:03:50;101964;;;-3.07;88.74
69027;BME280;56080;47.594;19.116;2022-12-18T05:08:49;101975;;;-3.01;89.07
69027;BME280;56080;47.594;19.116;2022-12-18T05:13:50;101975;;;-3.36;89.18
69027;BME280;56080;47.594;19.116;2022-12-18T05:18:49;101978;;;-3.28;87.73
69027;BME280;56080;47.594;19.116;2022-12-18T05:23:50;101981;;;-3.52;87.12
69027;BME280;56080;47.594;19.116;2022-12-18T05:28:49;101990;;;-3.71;88.03
69027;BME280;56080;47.594;19.116;2022-12-18T05:33:49;102002;;;-3.94;89.63
69027;BME280;56080;47.594;19.116;2022-12-18T05:38:49;102005;;;-3.79;89.95
69027;BME280;56080;47.594;19.116;2022-12-18T05:43:50;102013;;;-3.94;90.60
69027;BME280;56080;47.594;19.116;2022-12-18T05:53:49;102022;;;-3.92;90.44
69027;BME280;56080;47.594;19.116;2022-12-18T05:58:51;102024;;;-3.89;90.64
69027;BME280;56080;47.594;19.116;2022-12-18T06:03:50;102037;;;-3.87;90.78
69027;BME280;56080;47.594;19.116;2022-12-18T06:08:50;102044;;;-3.77;90.09
69027;BME280;56080;47.594;19.116;2022-12-18T06:13:56;102038;;;-3.62;89.81
69027;BME280;56080;47.594;19.116;2022-12-18T06:23:49;102039;;;-3.60;90.56
69027;BME280;56080;47.594;19.116;2022-12-18T06:28:49;102049;;;-3.71;89.74
69027;BME280;56080;47.594;19.116;2022-12-18T06:33:49;102062;;;-3.67;89.92
69027;BME280;56080;47.594;19.116;2022-12-18T06:38:49;102068;;;-3.59;89.15
69027;BME280;56080;47.594;19.116;2022-12-18T06:43:49;102082;;;-3.64;89.38
69027;BME280;56080;47.594;19.116;2022-12-18T06:48:49;102087;;;-3.59;89.54
69027;BME280;56080;47.594;19.116;2022-12-18T06:53:50;102096;;;-3.61;89.37
69027;BME280;56080;47.594;19.116;2022-12-18T06:58:49;102103;;;-3.95;90.22
69027;BME280;56080;47.594;19.116;2022-12-18T07:03:51;102109;;;-3.71;89.97
69027;BME280;56080;47.594;19.116;2022-12-18T07:08:50;102113;;;-3.66;89.52
69027;BME280;56080;47.594;19.116;2022-12-18T07:13:49;102117;;;-3.45;89.53
69027;BME280;56080;47.594;19.116;2022-12-18T07:18:49;102125;;;-3.37;88.77
69027;BME280;56080;47.594;19.116;2022-12-18T07:23:49;102140;;;-3.27;89.52
69027;BME280;56080;47.594;19.116;2022-12-18T07:28:49;102148;;;-2.99;89.09
69027;BME280;56080;47.594;19.116;2022-12-18T07:33:50;102159;;;-2.90;88.84
69027;BME280;56080;47.594;19.116;2022-12-18T07:38:50;102168;;;-2.59;88.31
69027;BME280;56080;47.594;19.116;2022-12-18T07:43:49;102173;;;-2.25;88.29
69027;BME280;56080;47.594;19.116;2022-12-18T07:48:50;102177;;;-2.02;87.63
69027;BME280;56080;47.594;19.116;2022-12-18T07:53:52;102187;;;-1.99;85.18
69027;BME280;56080;47.594;19.116;2022-12-18T07:58:50;102202;;;-2.03;86.19
69027;BME280;56080;47.594;19.116;2022-12-18T08:03:52;102203;;;-1.56;84.50
69027;BME280;56080;47.594;19.116;2022-12-18T08:08:52;102206;;;-1.68;83.67
69027;BME280;56080;47.594;19.116;2022-12-18T08:13:50;102214;;;-1.18;83.61
69027;BME280;56080;47.594;19.116;2022-12-18T08:18:51;102215;;;-1.03;82.49
69027;BME280;56080;47.594;19.116;2022-12-18T08:28:50;102222;;;-1.47;83.68
69027;BME280;56080;47.594;19.116;2022-12-18T08:33:50;102226;;;-0.39;80.15
69027;BME280;56080;47.594;19.116;2022-12-18T08:38:50;102230;;;0.47;78.89
69027;BME280;56080;47.594;19.116;2022-12-18T08:43:59;102226;;;0.73;74.66
69027;BME280;56080;47.594;19.116;2022-12-18T08:48:50;102233;;;1.36;74.03
69027;BME280;56080;47.594;19.116;2022-12-18T08:53:49;102241;;;2.09;71.84
69027;BME280;56080;47.594;19.116;2022-12-18T08:58:51;102244;;;1.46;72.25
69027;BME280;56080;47.594;19.116;2022-12-18T09:03:50;102249;;;1.47;70.12
69027;BME280;56080;47.594;19.116;2022-12-18T09:08:50;102259;;;1.53;69.31
69027;BME280;56080;47.594;19.116;2022-12-18T09:13:50;102270;;;1.64;69.54
69027;BME280;56080;47.594;19.116;2022-12-18T09:18:50;102277;;;2.43;68.57
69027;BME280;56080;47.594;19.116;2022-12-18T09:23:50;102272;;;2.78;67.85
69027;BME280;56080;47.594;19.116;2022-12-18T09:28:50;102265;;;2.73;63.82
69027;BME280;56080;47.594;19.116;2022-12-18T09:33:50;102260;;;2.99;61.49
69027;BME280;56080;47.594;19.116;2022-12-18T09:38:49;102255;;;2.87;60.31
69027;BME280;56080;47.594;19.116;2022-12-18T09:43:50;102254;;;3.19;60.10
69027;BME280;56080;47.594;19.116;2022-12-18T09:48:50;102251;;;3.86;57.77
69027;BME280;56080;47.594;19.116;2022-12-18T09:53:52;102237;;;3.94;56.29
69027;BME280;56080;47.594;19.116;2022-12-18T09:58:52;102245;;;2.96;58.82
69027;BME280;56080;47.594;19.116;2022-12-18T10:03:49;102244;;;3.03;60.54
69027;BME280;56080;47.594;19.116;2022-12-18T10:09:07;102244;;;2.15;61.28
69027;BME280;56080;47.594;19.116;2022-12-18T10:13:55;102248;;;2.28;62.14
69027;BME280;56080;47.594;19.116;2022-12-18T10:28:50;102255;;;1.84;64.63
69027;BME280;56080;47.594;19.116;2022-12-18T10:33:50;102245;;;2.18;64.33
69027;BME280;56080;47.594;19.116;2022-12-18T10:38:50;102236;;;2.14;63.42
69027;BME280;56080;47.594;19.116;2022-12-18T10:43:51;102239;;;2.06;61.92
69027;BME280;56080;47.594;19.116;2022-12-18T10:48:51;102240;;;1.87;63.04
69027;BME280;56080;47.594;19.116;2022-12-18T10:53:51;102241;;;1.68;63.65
69027;BME280;56080;47.594;19.116;2022-12-18T10:58:55;102238;;;1.77;63.43
69027;BME280;56080;47.594;19.116;2022-12-18T11:08:59;102232;;;1.71;63.41
69027;BME280;56080;47.594;19.116;2022-12-18T11:13:52;102226;;;1.58;64.29
69027;BME280;56080;47.594;19.116;2022-12-18T11:18:52;102226;;;1.73;63.67
69027;BME280;56080;47.594;19.116;2022-12-18T11:23:50;102223;;;1.75;63.23
69027;BME280;56080;47.594;19.116;2022-12-18T11:28:51;102231;;;2.01;63.53
69027;BME280;56080;47.594;19.116;2022-12-18T11:34:02;102224;;;1.92;62.62
69027;BME280;56080;47.594;19.116;2022-12-18T11:38:50;102215;;;2.12;61.92
69027;BME280;56080;47.594;19.116;2022-12-18T11:43:52;102210;;;2.17;62.20
69027;BME280;56080;47.594;19.116;2022-12-18T11:48:52;102209;;;2.12;61.56
69027;BME280;56080;47.594;19.116;2022-12-18T11:53:51;102205;;;2.32;60.75
69027;BME280;56080;47.594;19.116;2022-12-18T12:33:53;102195;;;2.15;59.79
69027;BME280;56080;47.594;19.116;2022-12-18T12:38:54;102197;;;2.31;59.72
69027;BME280;56080;47.594;19.116;2022-12-18T12:44:00;102196;;;2.34;59.75
69027;BME280;56080;47.594;19.116;2022-12-18T12:48:51;102214;;;2.32;59.17
69027;BME280;56080;47.594;19.116;2022-12-18T12:53:52;102224;;;2.55;59.38
69027;BME280;56080;47.594;19.116;2022-12-18T12:58:55;102227;;;2.53;59.34
69027;BME280;56080;47.594;19.116;2022-12-18T13:03:56;102228;;;2.42;59.62
69027;BME280;56080;47.594;19.116;2022-12-18T13:08:52;102242;;;2.53;59.34
69027;BME280;56080;47.594;19.116;2022-12-18T13:13:52;102236;;;2.79;58.32
69027;BME280;56080;47.594;19.116;2022-12-18T13:18:53;102236;;;2.67;58.39
69027;BME280;56080;47.594;19.116;2022-12-18T13:23:50;102239;;;2.54;59.11
69027;BME280;56080;47.594;19.116;2022-12-18T13:28:51;102245;;;2.67;58.71
69027;BME280;56080;47.594;19.116;2022-12-18T13:43:51;102262;;;2.31;60.69
69027;BME280;56080;47.594;19.116;2022-12-18T13:53:52;102264;;;2.33;60.53
69027;BME280;56080;47.594;19.116;2022-12-18T14:03:51;102273;;;2.39;61.35
69027;BME280;56080;47.594;19.116;2022-12-18T14:08:50;102271;;;2.32;61.12
69027;BME280;56080;47.594;19.116;2022-12-18T14:13:51;102273;;;2.19;61.84
69027;BME280;56080;47.594;19.116;2022-12-18T14:18:53;102277;;;2.14;61.82
69027;BME280;56080;47.594;19.116;2022-12-18T14:24:02;102269;;;2.06;61.70
69027;BME280;56080;47.594;19.116;2022-12-18T14:33:50;102284;;;1.97;63.66
69027;BME280;56080;47.594;19.116;2022-12-18T14:38:51;102289;;;1.80;65.11
69027;BME280;56080;47.594;19.116;2022-12-18T14:43:53;102295;;;1.82;65.38
69027;BME280;56080;47.594;19.116;2022-12-18T14:48:50;102303;;;1.47;66.71
69027;BME280;56080;47.594;19.116;2022-12-18T15:03:51;102321;;;1.49;68.20
69027;BME280;56080;47.594;19.116;2022-12-18T15:08:50;102328;;;1.08;69.73
69027;BME280;56080;47.594;19.116;2022-12-18T15:13:52;102331;;;1.18;69.99
69027;BME280;56080;47.594;19.116;2022-12-18T15:18:50;102334;;;1.19;69.84
69027;BME280;56080;47.594;19.116;2022-12-18T15:23:50;102343;;;1.01;70.72
69027;BME280;56080;47.594;19.116;2022-12-18T15:28:52;102349;;;0.63;72.66
69027;BME280;56080;47.594;19.116;2022-12-18T15:38:50;102356;;;0.59;73.87
69027;BME280;56080;47.594;19.116;2022-12-18T15:43:51;102367;;;0.52;73.73
69027;BME280;56080;47.594;19.116;2022-12-18T15:48:54;102377;;;0.25;74.57
69027;BME280;56080;47.594;19.116;2022-12-18T15:53:52;102386;;;0.20;75.04
69027;BME280;56080;47.594;19.116;2022-12-18T15:58:52;102399;;;0.02;76.73
69027;BME280;56080;47.594;19.116;2022-12-18T16:03:50;102399;;;0.14;76.49
69027;BME280;56080;47.594;19.116;2022-12-18T16:08:50;102403;;;-0.08;77.56
69027;BME280;56080;47.594;19.116;2022-12-18T16:13:52;102401;;;-0.03;77.90
69027;BME280;56080;47.594;19.116;2022-12-18T16:18:51;102402;;;-0.27;78.57
69027;BME280;56080;47.594;19.116;2022-12-18T16:23:52;102419;;;-0.09;78.15
69027;BME280;56080;47.594;19.116;2022-12-18T16:28:51;102422;;;-0.13;77.37
69027;BME280;56080;47.594;19.116;2022-12-18T16:34:09;102422;;;-0.24;77.70
69027;BME280;56080;47.594;19.116;2022-12-18T16:38:50;102430;;;-0.68;78.72
69027;BME280;56080;47.594;19.116;2022-12-18T16:43:55;102432;;;-0.64;79.10
69027;BME280;56080;47.594;19.116;2022-12-18T16:48:50;102440;;;-0.67;79.56
69027;BME280;56080;47.594;19.116;2022-12-18T16:53:52;102442;;;-0.60;80.33
69027;BME280;56080;47.594;19.116;2022-12-18T16:58:53;102441;;;-0.61;80.02
69027;BME280;56080;47.594;19.116;2022-12-18T17:08:55;102427;;;-0.88;80.71
69027;BME280;56080;47.594;19.116;2022-12-18T17:13:50;102432;;;-0.87;80.11
69027;BME280;56080;47.594;19.116;2022-12-18T17:18:52;102429;;;-1.02;80.63
69027;BME280;56080;47.594;19.116;2022-12-18T17:23:50;102432;;;-1.21;81.63
69027;BME280;56080;47.594;19.116;2022-12-18T17:28:52;102439;;;-1.10;81.39
69027;BME280;56080;47.594;19.116;2022-12-18T17:33:51;102432;;;-1.02;81.41
69027;BME280;56080;47.594;19.116;2022-12-18T17:38:53;102435;;;-1.28;82.64
69027;BME280;56080;47.594;19.116;2022-12-18T17:43:51;102430;;;-1.17;82.46
69027;BME280;56080;47.594;19.116;2022-12-18T17:48:51;102446;;;-1.26;83.20
69027;BME280;56080;47.594;19.116;2022-12-18T17:53:50;102444;;;-1.20;82.58
69027;BME280;56080;47.594;19.116;2022-12-18T17:58:50;102446;;;-1.31;83.20
69027;BME280;56080;47.594;19.116;2022-12-18T18:03:55;102437;;;-1.29;82.94
69027;BME280;56080;47.594;19.116;2022-12-18T18:08:50;102442;;;-1.24;82.46
69027;BME280;56080;47.594;19.116;2022-12-18T18:14:01;102451;;;-1.35;83.12
69027;BME280;56080;47.594;19.116;2022-12-18T18:18:51;102455;;;-1.43;83.56
69027;BME280;56080;47.594;19.116;2022-12-18T18:23:53;102452;;;-1.41;83.70
69027;BME280;56080;47.594;19.116;2022-12-18T18:28:53;102451;;;-1.27;83.15
69027;BME280;56080;47.594;19.116;2022-12-18T18:33:52;102453;;;-1.56;83.88
69027;BME280;56080;47.594;19.116;2022-12-18T18:38:52;102461;;;-1.46;84.16
69027;BME280;56080;47.594;19.116;2022-12-18T18:43:54;102465;;;-1.30;84.06
69027;BME280;56080;47.594;19.116;2022-12-18T18:48:52;102472;;;-1.46;84.25
69027;BME280;56080;47.594;19.116;2022-12-18T18:53:51;102473;;;-1.81;85.32
69027;BME280;56080;47.594;19.116;2022-12-18T19:03:51;102485;;;-1.77;85.57
69027;BME280;56080;47.594;19.116;2022-12-18T19:08:51;102491;;;-1.92;86.31
69027;BME280;56080;47.594;19.116;2022-12-18T19:13:50;102492;;;-1.69;85.56
69027;BME280;56080;47.594;19.116;2022-12-18T19:18:50;102490;;;-1.76;85.64
69027;BME280;56080;47.594;19.116;2022-12-18T19:23:50;102502;;;-1.72;85.78
69027;BME280;56080;47.594;19.116;2022-12-18T19:28:52;102509;;;-1.78;85.34
69027;BME280;56080;47.594;19.116;2022-12-18T19:33:50;102518;;;-2.05;86.20
69027;BME280;56080;47.594;19.116;2022-12-18T19:38:51;102513;;;-2.09;84.64
69027;BME280;56080;47.594;19.116;2022-12-18T19:43:51;102523;;;-2.36;84.51
69027;BME280;56080;47.594;19.116;2022-12-18T19:48:52;102527;;;-2.40;84.13
69027;BME280;56080;47.594;19.116;2022-12-18T19:53:58;102535;;;-2.57;85.16
69027;BME280;56080;47.594;19.116;2022-12-18T19:58:50;102538;;;-2.56;85.51
69027;BME280;56080;47.594;19.116;2022-12-18T20:03:55;102528;;;-2.72;86.49
69027;BME280;56080;47.594;19.116;2022-12-18T20:08:51;102537;;;-2.66;86.16
69027;BME280;56080;47.594;19.116;2022-12-18T20:13:50;102542;;;-2.56;85.58
69027;BME280;56080;47.594;19.116;2022-12-18T20:19:00;102545;;;-2.65;85.67
69027;BME280;56080;47.594;19.116;2022-12-18T20:23:50;102557;;;-2.70;85.68
69027;BME280;56080;47.594;19.116;2022-12-18T20:28:51;102561;;;-2.76;85.97
69027;BME280;56080;47.594;19.116;2022-12-18T20:33:54;102561;;;-3.03;86.61
69027;BME280;56080;47.594;19.116;2022-12-18T20:38:53;102558;;;-2.79;87.78
69027;BME280;56080;47.594;19.116;2022-12-18T20:43:50;102562;;;-2.70;87.52
69027;BME280;56080;47.594;19.116;2022-12-18T20:48:50;102570;;;-2.77;87.27
69027;BME280;56080;47.594;19.116;2022-12-18T20:53:53;102571;;;-2.59;87.68
69027;BME280;56080;47.594;19.116;2022-12-18T20:58:50;102574;;;-2.70;87.66
69027;BME280;56080;47.594;19.116;2022-12-18T21:03:50;102581;;;-2.47;87.41
69027;BME280;56080;47.594;19.116;2022-12-18T21:08:50;102587;;;-2.89;87.60
69027;BME280;56080;47.594;19.116;2022-12-18T21:13:50;102589;;;-2.74;87.67
69027;BME280;56080;47.594;19.116;2022-12-18T21:18:52;102589;;;-2.62;88.34
69027;BME280;56080;47.594;19.116;2022-12-18T21:23:50;102589;;;-2.45;87.70
69027;BME280;56080;47.594;19.116;2022-12-18T21:28:52;102592;;;-2.38;88.14
69027;BME280;56080;47.594;19.116;2022-12-18T21:33:52;102582;;;-2.46;88.01
69027;BME280;56080;47.594;19.116;2022-12-18T21:38:51;102577;;;-2.51;88.31
69027;BME280;56080;47.594;19.116;2022-12-18T21:44:00;102578;;;-2.46;88.56
69027;BME280;56080;47.594;19.116;2022-12-18T21:48:50;102570;;;-2.74;89.29
69027;BME280;56080;47.594;19.116;2022-12-18T21:53:50;102573;;;-2.48;88.63
69027;BME280;56080;47.594;19.116;2022-12-18T21:58:57;102569;;;-2.89;89.71
69027;BME280;56080;47.594;19.116;2022-12-18T22:03:50;102573;;;-2.60;88.49
69027;BME280;56080;47.594;19.116;2022-12-18T22:08:50;102570;;;-2.72;88.80
69027;BME280;56080;47.594;19.116;2022-12-18T22:13:50;102573;;;-2.89;88.71
69027;BME280;56080;47.594;19.116;2022-12-18T22:18:50;102580;;;-2.86;88.97
69027;BME280;56080;47.594;19.116;2022-12-18T22:23:52;102577;;;-2.67;88.67
69027;BME280;56080;47.594;19.116;2022-12-18T22:29:00;102577;;;-2.97;88.45
69027;BME280;56080;47.594;19.116;2022-12-18T22:33:50;102574;;;-2.94;88.82
69027;BME280;56080;47.594;19.116;2022-12-18T22:38:51;102584;;;-3.12;89.39
69027;BME280;56080;47.594;19.116;2022-12-18T22:43:50;102589;;;-3.10;88.80
69027;BME280;56080;47.594;19.116;2022-12-18T22:48:50;102588;;;-3.16;88.79
69027;BME280;56080;47.594;19.116;2022-12-18T22:53:50;102588;;;-3.11;89.35
69027;BME280;56080;47.594;19.116;2022-12-18T22:58:50;102594;;;-2.98;89.32
69027;BME280;56080;47.594;19.116;2022-12-18T23:03:50;102599;;;-2.80;89.24
69027;BME280;56080;47.594;19.116;2022-12-18T23:08:57;102596;;;-2.98;90.07
69027;BME280;56080;47.594;19.116;2022-12-18T23:13:50;102596;;;-2.80;90.08
69027;BME280;56080;47.594;19.116;2022-12-18T23:18:52;102597;;;-2.57;90.93
69027;BME280;56080;47.594;19.116;2022-12-18T23:23:50;102602;;;-2.61;91.24
69027;BME280;56080;47.594;19.116;2022-12-18T23:28:50;102598;;;-2.51;92.58
69027;BME280;56080;47.594;19.116;2022-12-18T23:33:50;102595;;;-2.57;92.35
69027;BME280;56080;47.594;19.116;2022-12-18T23:38:52;102588;;;-2.40;92.68
69027;BME280;56080;47.594;19.116;2022-12-18T23:43:50;102589;;;-2.43;93.24
69027;BME280;56080;47.594;19.116;2022-12-18T23:48:50;102587;;;-2.37;93.96
69027;BME280;56080;47.594;19.116;2022-12-18T23:53:51;102600;;;-2.32;94.17
69027;BME280;56080;47.594;19.116;2022-12-18T23:58:53;102602;;;-2.17;94.60
